Time;durP1;ratioP1;P1;durP2;ratioP2;P2;SDS_P1;SDS_P2;PMS_P1;PMS_P2;Temp;Humidity;BMP_temperature;BMP_pressure;BME280_temperature;BME280_humidity;BME280_pressure;Samples;Min_cycle;Max_cycle;Signal;HPM_P1;HPM_P2
2022/05/16 00:01:54;;;;;;;10.68;4.00;;;18.40;83.30;;;;;;5015283;28;20033;-79
2022/05/16 00:04:20;;;;;;;11.18;3.72;;;18.40;83.30;;;;;;5015357;28;20022;-80
2022/05/16 00:06:47;;;;;;;8.98;3.42;;;18.40;83.80;;;;;;5000644;28;20033;-80
2022/05/16 00:09:12;;;;;;;9.13;3.85;;;18.40;84.00;;;;;;4995265;28;20479;-80
2022/05/16 00:11:38;;;;;;;11.82;3.40;;;18.30;84.00;;;;;;4995159;28;20039;-80
2022/05/16 00:14:04;;;;;;;11.73;4.35;;;18.30;84.50;;;;;;4994513;28;20034;-79
2022/05/16 00:16:30;;;;;;;8.95;3.47;;;18.20;84.60;;;;;;5004461;28;20474;-80
2022/05/16 00:18:55;;;;;;;6.53;3.00;;;18.20;84.50;;;;;;5034729;28;20044;-80
2022/05/16 00:21:21;;;;;;;6.57;3.13;;;18.20;84.80;;;;;;5034077;28;20029;-80
2022/05/16 00:23:46;;;;;;;8.55;3.22;;;18.20;85.10;;;;;;5034733;28;20025;-79
2022/05/16 00:26:12;;;;;;;10.55;3.35;;;18.20;85.00;;;;;;5034366;28;20029;-79
2022/05/16 00:28:38;;;;;;;10.98;3.30;;;18.10;85.30;;;;;;5034311;28;20031;-79
2022/05/16 00:31:05;;;;;;;11.88;3.38;;;18.10;85.30;;;;;;5034419;28;20371;-80
2022/05/16 00:33:31;;;;;;;12.05;3.50;;;18.10;85.60;;;;;;5035242;28;20017;-80
2022/05/16 00:35:56;;;;;;;12.75;3.72;;;18.10;85.90;;;;;;5034261;28;20028;-79
2022/05/16 00:38:22;;;;;;;14.60;3.47;;;18.10;86.00;;;;;;5039382;28;20071;-78
2022/05/16 00:40:47;;;;;;;13.98;4.00;;;18.10;86.10;;;;;;5035213;28;20022;-80
2022/05/16 00:43:14;;;;;;;15.30;4.28;;;18.00;86.30;;;;;;5033732;28;20022;-79
2022/05/16 00:45:40;;;;;;;9.63;3.40;;;18.00;86.30;;;;;;5034485;28;20026;-79
2022/05/16 00:48:06;;;;;;;9.40;3.45;;;18.00;86.40;;;;;;5034073;28;20025;-79
2022/05/16 00:50:39;;;;;;;4.90;3.30;;;17.90;86.70;;;;;;5033554;28;20061;-80
2022/05/16 00:53:06;;;;;;;10.10;3.65;;;17.90;86.90;;;;;;5033941;28;20024;-79
2022/05/16 00:55:35;;;;;;;9.15;4.22;;;17.80;87.20;;;;;;5034176;28;20044;-79
2022/05/16 00:58:07;;;;;;;5.40;2.67;;;17.80;87.30;;;;;;5033627;28;20030;-79
2022/05/16 01:00:35;;;;;;;12.45;3.50;;;17.80;87.70;;;;;;5033762;28;20056;-79
2022/05/16 01:05:52;;;;;;;9.15;3.60;;;17.70;88.10;;;;;;5034576;28;20032;-80
2022/05/16 01:08:22;;;;;;;6.15;3.30;;;17.80;88.30;;;;;;5034053;28;20025;-79
2022/05/16 01:10:48;;;;;;;9.35;3.75;;;17.70;88.50;;;;;;5032825;28;20102;-79
2022/05/16 01:13:14;;;;;;;10.45;3.28;;;17.60;89.50;;;;;;5033829;28;20462;-79
2022/05/16 01:15:44;;;;;;;11.30;3.72;;;17.10;88.70;;;;;;5036573;28;20029;-80
2022/05/16 01:18:12;;;;;;;7.75;3.90;;;17.50;89.30;;;;;;5033872;28;20482;-78
2022/05/16 01:21:18;;;;;;;7.10;3.38;;;17.50;89.40;;;;;;5033548;28;20477;-78
2022/05/16 01:23:54;;;;;;;9.50;3.42;;;17.50;89.80;;;;;;5037690;28;20021;-78
2022/05/16 01:26:24;;;;;;;5.95;3.20;;;17.50;90.00;;;;;;5044607;28;20032;-80
2022/05/16 01:28:51;;;;;;;7.65;3.53;;;17.50;90.10;;;;;;5033333;28;20037;-79
2022/05/16 01:31:16;;;;;;;9.85;3.28;;;17.40;90.10;;;;;;5032764;28;20128;-79
2022/05/16 01:33:42;;;;;;;14.98;4.57;;;17.40;90.30;;;;;;5033842;28;20053;-79
2022/05/16 01:36:08;;;;;;;9.85;3.75;;;17.40;90.30;;;;;;5047888;28;20113;-78
2022/05/16 01:38:34;;;;;;;11.13;4.20;;;17.30;90.40;;;;;;5036503;28;20025;-78
2022/05/16 01:41:09;;;;;;;11.23;3.40;;;17.30;90.60;;;;;;5053129;28;20036;-79
2022/05/16 01:43:39;;;;;;;7.20;3.10;;;17.30;90.80;;;;;;5036014;28;20493;-79
2022/05/16 01:46:06;;;;;;;8.88;4.72;;;17.20;90.90;;;;;;5032421;28;20037;-79
2022/05/16 01:48:32;;;;;;;14.63;4.22;;;17.20;91.00;;;;;;5033761;28;20029;-79
2022/05/16 01:51:00;;;;;;;8.43;3.80;;;17.20;91.00;;;;;;5032887;28;20489;-79
2022/05/16 01:53:26;;;;;;;6.93;3.33;;;17.10;91.20;;;;;;5032500;28;20022;-78
2022/05/16 01:55:52;;;;;;;7.07;3.42;;;17.10;91.30;;;;;;5032744;28;20036;-78
2022/05/16 01:58:17;;;;;;;10.32;4.55;;;17.10;91.40;;;;;;5032813;28;20021;-79
2022/05/16 02:00:43;;;;;;;10.23;4.10;;;17.10;91.50;;;;;;5032182;28;20045;-79
2022/05/16 02:03:09;;;;;;;11.57;4.32;;;17.00;91.60;;;;;;5032739;28;20043;-78
2022/05/16 02:05:35;;;;;;;11.98;4.30;;;17.00;91.80;;;;;;5033016;28;20033;-78
2022/05/16 02:08:01;;;;;;;7.18;3.60;;;17.00;91.90;;;;;;5032056;28;20085;-78
2022/05/16 02:10:27;;;;;;;12.27;4.47;;;16.90;92.00;;;;;;5033082;28;20367;-78
2022/05/16 02:12:56;;;;;;;7.70;3.58;;;16.90;92.10;;;;;;5032980;28;20033;-78
2022/05/16 02:15:24;;;;;;;6.88;3.25;;;16.90;92.20;;;;;;5032381;28;20030;-79
2022/05/16 02:17:50;;;;;;;14.75;4.43;;;16.90;92.40;;;;;;5032548;28;20481;-80
2022/05/16 02:20:16;;;;;;;9.27;3.92;;;16.80;92.40;;;;;;5032471;28;20045;-78
2022/05/16 02:25:26;;;;;;;8.95;4.07;;;16.80;92.60;;;;;;5032727;28;20039;-78
2022/05/16 02:27:52;;;;;;;10.82;3.92;;;16.70;92.80;;;;;;5031804;28;20025;-79
2022/05/16 02:30:20;;;;;;;10.98;4.45;;;16.70;92.90;;;;;;5032785;28;20033;-78
2022/05/16 02:32:47;;;;;;;7.55;4.10;;;16.70;93.00;;;;;;5032990;28;20048;-79
2022/05/16 02:35:12;;;;;;;7.97;4.03;;;16.60;93.10;;;;;;5036439;28;20036;-80
2022/05/16 02:37:38;;;;;;;9.90;4.38;;;16.60;93.10;;;;;;5034520;28;20022;-79
2022/05/16 02:40:05;;;;;;;12.13;4.68;;;16.60;93.20;;;;;;5032854;28;20091;-78
2022/05/16 02:42:31;;;;;;;11.20;4.25;;;16.60;93.30;;;;;;5039951;28;20045;-78
2022/05/16 02:44:57;;;;;;;22.10;5.25;;;16.60;93.40;;;;;;5046201;28;20044;-80
2022/05/16 02:47:23;;;;;;;9.77;4.40;;;16.50;93.60;;;;;;5038725;28;20028;-79
2022/05/16 02:49:49;;;;;;;11.15;4.35;;;16.50;93.70;;;;;;5035006;28;20108;-79
2022/05/16 02:52:15;;;;;;;14.05;4.75;;;16.50;93.90;;;;;;5034801;28;20052;-78
2022/05/16 02:54:41;;;;;;;8.27;4.13;;;16.40;94.00;;;;;;5038711;28;20040;-79
2022/05/16 02:57:08;;;;;;;12.23;4.72;;;16.40;94.00;;;;;;5036842;28;20485;-77
2022/05/16 02:59:34;;;;;;;11.23;4.57;;;16.40;94.20;;;;;;5040175;28;20021;-79
2022/05/16 03:02:02;;;;;;;10.77;4.78;;;16.40;94.20;;;;;;5037444;28;20021;-78
2022/05/16 03:04:27;;;;;;;11.65;4.35;;;16.40;94.30;;;;;;5036674;28;20060;-79
2022/05/16 03:06:54;;;;;;;8.43;4.05;;;16.40;94.40;;;;;;5034589;28;20021;-79
2022/05/16 03:09:21;;;;;;;9.60;4.63;;;16.40;94.40;;;;;;5033012;28;20034;-78
2022/05/16 03:11:46;;;;;;;11.70;4.60;;;16.40;94.90;;;;;;5032679;28;20049;-78
2022/05/16 03:14:12;;;;;;;7.13;4.25;;;16.30;94.60;;;;;;5032713;28;20034;-78
2022/05/16 03:16:38;;;;;;;10.52;3.72;;;16.30;94.60;;;;;;5035610;28;20045;-79
2022/05/16 03:19:04;;;;;;;6.95;3.85;;;16.40;94.80;;;;;;5035399;28;20437;-78
2022/05/16 03:21:30;;;;;;;13.40;5.72;;;16.30;95.00;;;;;;5035811;28;20033;-79
2022/05/16 03:23:57;;;;;;;13.32;4.82;;;16.30;95.20;;;;;;5036550;28;20032;-78
2022/05/16 03:26:22;;;;;;;10.13;4.45;;;16.30;95.40;;;;;;5037846;28;20056;-79
2022/05/16 03:28:48;;;;;;;7.70;4.35;;;16.30;95.50;;;;;;5036812;28;20021;-79
2022/05/16 03:31:13;;;;;;;11.73;4.97;;;16.30;95.60;;;;;;5049000;28;20029;-79
2022/05/16 03:33:39;;;;;;;15.57;4.28;;;16.30;95.80;;;;;;5043337;28;20068;-78
2022/05/16 03:36:05;;;;;;;8.40;4.80;;;16.30;95.80;;;;;;5040022;28;20037;-79
2022/05/16 03:41:15;;;;;;;9.50;4.55;;;16.20;96.50;;;;;;5047478;28;20068;-77
2022/05/16 03:43:41;;;;;;;9.07;4.90;;;16.20;96.80;;;;;;5041352;28;20021;-80
2022/05/16 03:46:07;;;;;;;7.80;4.47;;;16.20;96.70;;;;;;5042906;28;20030;-79
2022/05/16 03:48:33;;;;;;;13.80;4.90;;;16.10;96.60;;;;;;5046193;28;20029;-80
2022/05/16 03:51:01;;;;;;;9.80;4.90;;;16.20;96.60;;;;;;5035327;28;20033;-80
2022/05/16 03:53:27;;;;;;;13.38;4.57;;;16.20;96.60;;;;;;5036145;28;20032;-80
2022/05/16 03:55:52;;;;;;;10.35;4.90;;;16.10;96.60;;;;;;5035247;28;20025;-79
2022/05/16 03:58:18;;;;;;;10.30;4.65;;;16.10;96.60;;;;;;5035153;28;20065;-79
2022/05/16 04:00:44;;;;;;;12.00;5.35;;;16.10;96.70;;;;;;5034432;28;20081;-80
2022/05/16 04:03:10;;;;;;;7.30;4.35;;;16.10;96.70;;;;;;5034851;28;20073;-79
2022/05/16 04:05:35;;;;;;;11.40;5.38;;;16.10;96.70;;;;;;5034600;28;20374;-80
2022/05/16 04:08:01;;;;;;;12.75;4.93;;;16.10;96.80;;;;;;5034584;28;20022;-81
2022/05/16 04:10:27;;;;;;;9.02;4.95;;;16.10;97.00;;;;;;5035032;28;20390;-80
2022/05/16 04:12:54;;;;;;;13.05;4.88;;;16.10;97.00;;;;;;5034203;28;20021;-80
2022/05/16 04:15:21;;;;;;;11.05;5.20;;;16.10;97.10;;;;;;5034967;28;20033;-81
2022/05/16 04:17:47;;;;;;;5.93;4.47;;;16.10;97.10;;;;;;5034800;28;20466;-81
2022/05/16 04:20:13;;;;;;;8.32;5.07;;;16.10;97.30;;;;;;5034650;28;20060;-80
2022/05/16 04:22:39;;;;;;;12.30;5.60;;;16.10;97.40;;;;;;5034522;28;20137;-80
2022/05/16 04:25:07;;;;;;;12.15;5.68;;;16.20;97.50;;;;;;5034390;28;20025;-80
2022/05/16 04:27:32;;;;;;;11.38;6.30;;;16.20;97.70;;;;;;5034106;28;20029;-80
2022/05/16 04:29:58;;;;;;;9.38;4.95;;;16.20;97.50;;;;;;5034235;28;20084;-80
2022/05/16 04:32:24;;;;;;;10.88;5.57;;;16.60;97.60;;;;;;5034976;28;20041;-81
2022/05/16 04:34:49;;;;;;;9.27;5.15;;;16.30;97.40;;;;;;5037250;28;20331;-79
2022/05/16 04:37:15;;;;;;;8.32;4.90;;;16.30;97.40;;;;;;5034853;28;20032;-80
2022/05/16 04:39:41;;;;;;;8.00;5.55;;;16.40;97.70;;;;;;5036772;28;20029;-79
2022/05/16 04:44:50;;;;;;;16.92;6.20;;;16.50;97.30;;;;;;5038732;28;20119;-80
2022/05/16 04:47:16;;;;;;;15.88;6.45;;;16.60;97.20;;;;;;5036155;28;20025;-81
2022/05/16 04:49:42;;;;;;;12.32;5.32;;;16.80;97.10;;;;;;5034924;28;20084;-79
2022/05/16 04:52:11;;;;;;;11.77;5.35;;;16.90;97.00;;;;;;5034003;28;20045;-79
2022/05/16 04:54:36;;;;;;;11.85;6.03;;;17.00;97.00;;;;;;5034405;28;20033;-79
2022/05/16 04:57:02;;;;;;;11.00;6.63;;;17.10;96.80;;;;;;5034057;28;20025;-80
2022/05/16 04:59:28;;;;;;;9.70;5.63;;;17.20;96.70;;;;;;5038896;28;20051;-77
2022/05/16 05:01:53;;;;;;;6.78;5.55;;;17.40;96.70;;;;;;5033108;28;20482;-79
2022/05/16 05:04:20;;;;;;;9.32;5.38;;;17.50;96.50;;;;;;5033890;28;20041;-79
2022/05/16 05:06:47;;;;;;;7.90;5.10;;;17.60;96.50;;;;;;5033732;28;20434;-79
2022/05/16 05:09:12;;;;;;;9.90;6.10;;;17.70;96.30;;;;;;5032918;28;20033;-80
2022/05/16 05:14:34;;;;;;;12.30;5.90;;;17.90;95.90;;;;;;5034575;28;20382;-80
2022/05/16 05:17:10;;;;;;;16.02;5.88;;;18.10;95.90;;;;;;5035063;28;20088;-79
2022/05/16 05:19:40;;;;;;;10.27;5.75;;;18.20;95.60;;;;;;5035646;28;20028;-82
2022/05/16 05:22:06;;;;;;;19.45;6.30;;;18.30;95.50;;;;;;5029547;28;20026;-79
2022/05/16 05:24:32;;;;;;;12.35;5.38;;;18.40;95.60;;;;;;5027031;28;20018;-80
2022/05/16 05:26:58;;;;;;;16.33;6.93;;;18.40;95.70;;;;;;5033851;28;20028;-79
2022/05/16 05:29:24;;;;;;;11.30;6.25;;;18.40;95.70;;;;;;5033400;28;20025;-80
2022/05/16 05:31:50;;;;;;;20.88;7.10;;;18.30;95.80;;;;;;5025331;28;20057;-81
2022/05/16 05:34:16;;;;;;;17.90;7.07;;;18.30;96.00;;;;;;5025765;28;20030;-80
2022/05/16 05:36:42;;;;;;;11.85;5.90;;;18.30;96.20;;;;;;5039781;28;20096;-80
2022/05/16 05:39:09;;;;;;;12.52;7.00;;;18.30;96.40;;;;;;5031290;28;20021;-80
2022/05/16 05:41:35;;;;;;;11.18;6.18;;;18.30;96.60;;;;;;5030993;28;20033;-80
2022/05/16 05:44:01;;;;;;;13.75;6.43;;;18.30;96.80;;;;;;5027651;28;20024;-79
2022/05/16 05:46:32;;;;;;;22.13;6.82;;;18.30;96.80;;;;;;5043015;28;20029;-79
2022/05/16 05:48:58;;;;;;;10.82;6.72;;;18.30;96.70;;;;;;5034409;28;20489;-80
2022/05/16 05:51:23;;;;;;;16.30;6.65;;;18.30;96.90;;;;;;5041863;28;20057;-79
2022/05/16 05:53:49;;;;;;;7.38;5.80;;;18.30;97.00;;;;;;5028532;28;20080;-81
2022/05/16 05:56:15;;;;;;;7.93;6.18;;;18.30;97.20;;;;;;5033859;28;20045;-80
2022/05/16 05:58:42;;;;;;;10.50;6.55;;;18.30;97.50;;;;;;5031848;28;20033;-80
2022/05/16 06:01:08;;;;;;;9.32;6.63;;;18.30;97.70;;;;;;5019813;28;20516;-81
2022/05/16 06:03:34;;;;;;;8.30;5.88;;;18.30;97.90;;;;;;5016482;28;20017;-80
2022/05/16 06:06:00;;;;;;;12.73;6.38;;;18.30;98.00;;;;;;5030832;28;20456;-79
2022/05/16 06:08:25;;;;;;;11.50;6.53;;;18.30;98.20;;;;;;5031881;28;20022;-81
2022/05/16 06:10:51;;;;;;;9.30;6.10;;;18.30;98.60;;;;;;5026073;28;20492;-80
2022/05/16 06:13:17;;;;;;;11.02;7.07;;;18.30;98.90;;;;;;5020512;28;20081;-79
2022/05/16 06:15:43;;;;;;;8.25;6.00;;;18.40;99.10;;;;;;5024082;28;20052;-79
2022/05/16 06:18:09;;;;;;;9.23;5.72;;;18.30;99.10;;;;;;5021118;28;20516;-78
2022/05/16 06:20:35;;;;;;;9.35;5.45;;;18.30;99.20;;;;;;5024200;28;20021;-78
2022/05/16 06:23:00;;;;;;;16.48;6.25;;;18.40;99.20;;;;;;5014559;28;20024;-79
2022/05/16 06:25:33;;;;;;;8.65;5.68;;;18.40;99.20;;;;;;5017535;28;20470;-77
2022/05/16 06:28:01;;;;;;;9.52;5.57;;;18.40;99.10;;;;;;5011240;28;20022;-80
2022/05/16 06:30:27;;;;;;;9.73;6.32;;;18.30;99.10;;;;;;5011118;28;20442;-79
2022/05/16 06:32:53;;;;;;;13.10;5.78;;;18.40;99.00;;;;;;5011962;28;20053;-80
2022/05/16 06:35:18;;;;;;;11.60;5.50;;;18.40;99.10;;;;;;5007206;28;20034;-80
2022/05/16 06:37:44;;;;;;;6.10;5.35;;;18.40;99.20;;;;;;5014488;28;20478;-81
2022/05/16 06:40:12;;;;;;;10.05;5.55;;;18.40;99.30;;;;;;5020995;28;20390;-81
2022/05/16 06:42:37;;;;;;;5.43;4.93;;;18.40;99.30;;;;;;5019548;28;20490;-80
2022/05/16 06:45:06;;;;;;;6.88;5.55;;;18.50;99.30;;;;;;5025853;28;20045;-80
2022/05/16 06:47:31;;;;;;;7.32;5.18;;;18.50;99.20;;;;;;5031326;28;20112;-79
2022/05/16 06:49:57;;;;;;;8.57;5.60;;;18.60;99.10;;;;;;5032182;28;20076;-82
2022/05/16 06:52:24;;;;;;;7.70;5.30;;;18.60;99.00;;;;;;5032508;28;20109;-77
2022/05/16 06:54:50;;;;;;;6.78;5.75;;;18.70;98.90;;;;;;5030649;28;20029;-77
2022/05/16 06:57:16;;;;;;;6.00;5.30;;;18.70;98.80;;;;;;5013468;28;20035;-81
2022/05/16 06:59:42;;;;;;;7.55;5.97;;;18.70;98.70;;;;;;5022754;28;20029;-79
2022/05/16 07:02:08;;;;;;;9.68;6.25;;;18.80;98.70;;;;;;5010560;28;20025;-77
2022/05/16 07:04:36;;;;;;;8.77;6.32;;;18.90;98.50;;;;;;5022481;28;20025;-80
2022/05/16 07:07:04;;;;;;;8.40;5.22;;;19.00;98.50;;;;;;5027631;28;20490;-77
2022/05/16 07:09:32;;;;;;;9.27;5.95;;;18.90;98.50;;;;;;5033149;28;20021;-78
2022/05/16 07:11:58;;;;;;;14.88;6.97;;;18.90;98.50;;;;;;5031858;28;20469;-78
2022/05/16 07:14:23;;;;;;;9.80;6.28;;;18.90;98.40;;;;;;5024924;28;20025;-79
2022/05/16 07:16:49;;;;;;;8.20;6.63;;;18.90;98.50;;;;;;5018953;28;20042;-79
2022/05/16 07:19:15;;;;;;;9.50;6.63;;;18.90;98.50;;;;;;5012084;28;20096;-78
2022/05/16 07:21:40;;;;;;;7.28;5.22;;;18.90;98.50;;;;;;5012818;28;20038;-79
2022/05/16 07:24:08;;;;;;;9.18;6.45;;;19.00;98.50;;;;;;5019551;28;20381;-79
2022/05/16 07:29:18;;;;;;;17.48;8.15;;;19.20;98.40;;;;;;5035311;28;20116;-77
2022/05/16 07:31:44;;;;;;;11.63;7.07;;;19.50;98.70;;;;;;5034986;28;20481;-78
2022/05/16 07:34:10;;;;;;;9.27;6.50;;;19.70;98.30;;;;;;5035655;28;20030;-77
2022/05/16 07:36:35;;;;;;;8.75;6.80;;;20.00;98.00;;;;;;5034718;28;20024;-79
2022/05/16 07:39:01;;;;;;;10.77;6.03;;;20.30;97.60;;;;;;5036096;28;20028;-76
2022/05/16 07:41:28;;;;;;;11.68;6.18;;;20.50;97.40;;;;;;5035891;28;20036;-77
2022/05/16 07:43:54;;;;;;;12.07;7.05;;;20.90;97.40;;;;;;5034266;28;20417;-76
2022/05/16 07:46:20;;;;;;;8.25;5.78;;;20.80;97.10;;;;;;5035386;28;20497;-77
2022/05/16 07:48:45;;;;;;;8.02;6.45;;;20.90;97.20;;;;;;5035088;28;20452;-77
2022/05/16 07:51:11;;;;;;;9.98;5.75;;;21.00;97.10;;;;;;5034006;28;20087;-78
2022/05/16 07:53:37;;;;;;;7.57;5.75;;;21.10;97.10;;;;;;5035183;28;20397;-79
2022/05/16 07:56:03;;;;;;;11.00;6.70;;;21.20;97.00;;;;;;5035955;28;20021;-79
2022/05/16 07:58:29;;;;;;;12.07;5.80;;;21.30;97.00;;;;;;5050829;28;20504;-79
2022/05/16 08:00:56;;;;;;;7.07;5.53;;;21.30;96.90;;;;;;5036022;28;20054;-77
2022/05/16 08:03:24;;;;;;;6.70;5.85;;;21.30;97.00;;;;;;5036076;28;20026;-77
2022/05/16 08:05:49;;;;;;;6.80;4.95;;;21.30;97.00;;;;;;5034244;28;20431;-78
2022/05/16 08:11:01;;;;;;;10.95;6.03;;;21.30;97.20;;;;;;5034813;28;20076;-79
2022/05/16 08:13:28;;;;;;;9.52;5.85;;;21.30;97.20;;;;;;5035577;28;20026;-77
2022/05/16 08:15:54;;;;;;;5.43;4.93;;;21.50;97.00;;;;;;5035984;28;20116;-76
2022/05/16 08:18:20;;;;;;;6.93;6.22;;;21.60;97.00;;;;;;5034920;28;20025;-77
2022/05/16 08:20:47;;;;;;;8.70;6.40;;;21.80;96.70;;;;;;5033915;28;20520;-77
2022/05/16 08:23:17;;;;;;;13.55;6.45;;;21.90;96.50;;;;;;5034625;28;20121;-77
2022/05/16 08:25:45;;;;;;;10.57;6.78;;;22.00;96.60;;;;;;5034740;28;20024;-77
2022/05/16 08:28:11;;;;;;;9.88;6.47;;;22.00;96.30;;;;;;5034200;28;20080;-76
2022/05/16 08:30:37;;;;;;;12.05;7.25;;;22.10;96.40;;;;;;5034693;28;20041;-78
2022/05/16 08:33:03;;;;;;;7.78;5.85;;;22.10;96.50;;;;;;5033487;28;20462;-77
2022/05/16 08:35:29;;;;;;;10.00;7.22;;;22.10;96.70;;;;;;5034087;28;20436;-77
2022/05/16 08:40:54;;;;;;;8.90;5.78;;;22.10;96.90;;;;;;5034046;28;20040;-77
2022/05/16 08:43:23;;;;;;;8.43;5.68;;;22.10;97.00;;;;;;5034395;28;20036;-78
2022/05/16 08:46:15;;;;;;;10.43;6.45;;;22.20;97.10;;;;;;5031724;28;20385;-78
2022/05/16 08:48:47;;;;;;;11.15;6.50;;;22.30;97.20;;;;;;4994172;28;20023;-77
2022/05/16 08:51:18;;;;;;;16.17;5.50;;;22.30;97.10;;;;;;4998401;28;20056;-77
2022/05/16 08:53:50;;;;;;;10.68;4.70;;;22.40;97.20;;;;;;5027677;28;20030;-77
2022/05/16 08:56:24;;;;;;;6.35;4.28;;;22.40;97.10;;;;;;5018159;28;20033;-78
2022/05/16 08:58:58;;;;;;;8.73;6.05;;;22.50;97.10;;;;;;5030440;28;20076;-78
2022/05/16 09:01:38;;;;;;;6.68;5.13;;;22.60;97.50;;;;;;5032472;28;20137;-77
2022/05/16 09:04:24;;;;;;;11.95;6.05;;;22.60;97.50;;;;;;5008709;28;20055;-77
2022/05/16 09:07:01;;;;;;;8.60;4.80;;;22.70;97.50;;;;;;5002158;28;20558;-77
2022/05/16 09:09:37;;;;;;;7.05;3.72;;;22.90;97.50;;;;;;4992299;28;20042;-76
2022/05/16 09:12:20;;;;;;;6.25;4.28;;;23.00;97.40;;;;;;5005947;28;20143;-77
2022/05/16 09:15:13;;;;;;;8.05;3.80;;;23.10;97.40;;;;;;5012228;28;20022;-77
2022/05/16 09:18:29;;;;;;;5.47;3.97;;;23.20;97.40;;;;;;4992574;28;20442;-78
2022/05/16 09:21:40;;;;;;;4.70;2.35;;;23.30;96.80;;;;;;5004184;28;20557;-78
2022/05/16 09:24:10;;;;;;;9.25;3.20;;;23.50;96.50;;;;;;5002509;28;20096;-77
2022/05/16 09:26:54;;;;;;;7.30;3.00;;;23.70;96.30;;;;;;5000540;28;20038;-77
2022/05/16 09:29:31;;;;;;;6.80;2.38;;;23.90;95.80;;;;;;4999591;28;20029;-77
2022/05/16 09:32:04;;;;;;;5.38;2.55;;;24.10;94.50;;;;;;5004295;28;20045;-77
2022/05/16 09:34:31;;;;;;;7.60;2.67;;;24.30;94.50;;;;;;5011505;28;20033;-76
2022/05/16 09:36:57;;;;;;;3.17;2.20;;;24.50;94.30;;;;;;5005553;28;20084;-77
2022/05/16 09:39:31;;;;;;;5.40;2.45;;;24.60;94.10;;;;;;5006391;28;20029;-76
2022/05/16 09:42:15;;;;;;;5.75;2.63;;;24.70;94.10;;;;;;5006000;28;20034;-77
2022/05/16 09:44:46;;;;;;;7.75;2.92;;;24.70;94.20;;;;;;5008483;28;20030;-76
2022/05/16 09:47:22;;;;;;;5.10;3.28;;;24.80;94.10;;;;;;5007930;28;20028;-77
2022/05/16 09:50:03;;;;;;;7.25;2.50;;;24.70;93.70;;;;;;5000263;28;20037;-79
2022/05/16 09:52:36;;;;;;;5.88;2.72;;;24.70;93.70;;;;;;5007419;28;20045;-78
2022/05/16 09:55:09;;;;;;;4.72;2.60;;;24.90;93.10;;;;;;5011330;28;20026;-77
2022/05/16 09:57:46;;;;;;;4.95;2.80;;;25.00;93.20;;;;;;5001761;28;20037;-77
2022/05/16 10:00:17;;;;;;;6.22;2.60;;;25.20;92.70;;;;;;4992218;28;20021;-77
2022/05/16 10:02:43;;;;;;;5.90;2.25;;;25.20;92.30;;;;;;4993120;28;20041;-79
2022/05/16 10:05:24;;;;;;;10.65;3.17;;;25.40;92.50;;;;;;5000399;28;20026;-73
2022/05/16 10:07:58;;;;;;;6.90;2.50;;;25.20;92.50;;;;;;5006439;28;20034;-79
2022/05/16 10:10:29;;;;;;;6.32;2.80;;;25.10;92.90;;;;;;4992102;28;20030;-78
2022/05/16 10:12:57;;;;;;;5.80;2.28;;;25.00;92.90;;;;;;5000384;28;20027;-78
2022/05/16 10:15:22;;;;;;;3.40;2.55;;;24.80;92.90;;;;;;5007928;28;20023;-77
2022/05/16 10:17:52;;;;;;;5.40;2.90;;;24.40;93.20;;;;;;5002472;28;20025;-77
2022/05/16 10:20:32;;;;;;;8.85;2.67;;;24.20;93.80;;;;;;5011521;28;20026;-76
2022/05/16 10:23:02;;;;;;;10.00;3.65;;;23.80;94.50;;;;;;5002817;28;20462;-78
2022/05/16 10:25:39;;;;;;;8.45;3.65;;;23.50;96.70;;;;;;4995718;28;20080;-77
2022/05/16 10:28:12;;;;;;;10.95;3.72;;;23.20;98.90;;;;;;5008030;28;20483;-80
2022/05/16 10:33:26;;;;;;;7.47;3.95;;;22.30;99.90;;;;;;5001590;28;20169;-76
2022/05/16 10:35:53;;;;;;;10.70;5.15;;;21.80;99.90;;;;;;4995515;28;20510;-76
2022/05/16 10:38:32;;;;;;;10.98;4.78;;;21.40;99.90;;;;;;5004393;28;20022;-76
2022/05/16 10:41:01;;;;;;;7.47;5.20;;;21.10;99.90;;;;;;5000234;28;20037;-77
2022/05/16 10:43:41;;;;;;;7.57;4.10;;;20.90;99.90;;;;;;4995945;28;20031;-77
2022/05/16 10:46:15;;;;;;;6.85;5.30;;;20.70;99.90;;;;;;4997346;28;20483;-77
2022/05/16 10:49:02;;;;;;;6.05;4.57;;;20.50;99.90;;;;;;5001209;28;20026;-78
2022/05/16 10:51:53;;;;;;;9.65;5.18;;;20.50;99.90;;;;;;4995647;28;20490;-77
2022/05/16 10:54:24;;;;;;;6.32;5.15;;;20.50;99.90;;;;;;5005152;28;20026;-78
2022/05/16 10:57:25;;;;;;;8.07;5.22;;;20.60;99.90;;;;;;5017619;28;20029;-78
2022/05/16 11:00:09;;;;;;;;;;;20.70;99.90;;;;;;5014847;28;20033;-77
2022/05/16 11:03:07;;;;;;;13.38;5.50;;;20.90;99.90;;;;;;5018812;28;19979;-78
2022/05/16 11:05:43;;;;;;;8.63;5.75;;;21.10;99.90;;;;;;4996953;28;20041;-78
2022/05/16 11:08:25;;;;;;;9.30;5.88;;;21.30;99.90;;;;;;5018024;28;20092;-79
2022/05/16 11:11:10;;;;;;;11.82;5.53;;;21.50;99.90;;;;;;5020031;28;20026;-79
2022/05/16 11:13:55;;;;;;;7.32;5.97;;;21.60;99.90;;;;;;5022900;28;20029;-79
2022/05/16 11:16:31;;;;;;;14.50;7.43;;;21.80;99.90;;;;;;5008052;28;20517;-79
2022/05/16 11:19:34;;;;;;;14.07;6.82;;;22.10;99.90;;;;;;5006057;28;20034;-79
2022/05/16 11:22:17;;;;;;;11.25;7.60;;;22.30;99.90;;;;;;5005248;28;20026;-79
2022/05/16 11:25:06;;;;;;;17.40;8.70;;;22.50;99.90;;;;;;5002000;28;20050;-79
2022/05/16 11:27:41;;;;;;;14.10;9.48;;;22.50;99.90;;;;;;4998170;28;20038;-77
2022/05/16 11:30:29;;;;;;;13.63;11.02;;;22.50;99.90;;;;;;5019483;28;20465;-78
2022/05/16 11:33:02;;;;;;;23.15;14.10;;;22.30;99.90;;;;;;5008838;28;20052;-78
2022/05/16 11:35:50;;;;;;;19.73;17.05;;;22.00;99.90;;;;;;5001036;28;20475;-77
2022/05/16 11:38:27;;;;;;;25.70;17.25;;;21.80;99.90;;;;;;4996588;28;20053;-77
2022/05/16 11:41:25;;;;;;;23.17;17.08;;;21.50;99.90;;;;;;4994364;28;20038;-79
2022/05/16 11:44:02;;;;;;;15.80;11.60;;;21.20;99.90;;;;;;4994470;28;20026;-77
2022/05/16 11:46:37;;;;;;;16.25;7.95;;;20.90;99.90;;;;;;4997398;28;20142;-78
2022/05/16 11:49:02;;;;;;;16.33;8.07;;;20.60;99.90;;;;;;4997069;28;20045;-78
2022/05/16 11:52:08;;;;;;;11.85;8.60;;;20.40;99.90;;;;;;4996258;28;20494;-78
2022/05/16 11:54:37;;;;;;;10.00;6.97;;;20.30;99.90;;;;;;4997241;28;20057;-80
2022/05/16 12:02:52;;;;;;;12.07;7.53;;;20.00;99.90;;;;;;5030362;28;20045;-77
2022/05/16 12:05:20;;;;;;;12.18;6.63;;;20.10;99.90;;;;;;5029805;28;20048;-79
2022/05/16 12:07:52;;;;;;;10.98;7.50;;;19.90;99.90;;;;;;5035411;28;20018;-78
2022/05/16 12:10:25;;;;;;;17.25;7.40;;;20.00;99.90;;;;;;5034730;28;20048;-79
2022/05/16 12:13:29;;;;;;;14.90;7.40;;;20.10;99.90;;;;;;5036060;28;20112;-76
2022/05/16 12:16:13;;;;;;;22.27;8.00;;;20.10;99.90;;;;;;5004576;28;20041;-77
2022/05/16 12:19:08;;;;;;;18.00;6.95;;;20.20;99.90;;;;;;5008149;28;20030;-76
2022/05/16 12:21:35;;;;;;;15.38;7.97;;;20.30;99.90;;;;;;5011007;28;20029;-77
2022/05/16 12:24:24;;;;;;;19.17;7.60;;;20.40;99.90;;;;;;5003506;28;20026;-76
2022/05/16 12:26:59;;;;;;;26.83;7.93;;;20.50;99.90;;;;;;4999517;28;20026;-77
2022/05/16 12:29:42;;;;;;;21.63;8.38;;;20.60;99.90;;;;;;5006442;28;20514;-79
2022/05/16 12:32:08;;;;;;;19.88;7.47;;;20.70;99.90;;;;;;5009779;28;20061;-78
2022/05/16 12:34:38;;;;;;;15.98;8.23;;;21.00;99.90;;;;;;4999628;28;20112;-77
2022/05/16 12:37:13;;;;;;;14.98;7.28;;;21.20;99.90;;;;;;5007697;28;20030;-77
2022/05/16 12:40:00;;;;;;;13.55;7.00;;;21.50;99.90;;;;;;5004050;28;20045;-78
2022/05/16 12:42:50;;;;;;;13.65;7.18;;;21.70;99.90;;;;;;4999199;28;20152;-77
2022/05/16 12:45:41;;;;;;;14.40;6.93;;;21.80;99.90;;;;;;5005744;28;20117;-77
2022/05/16 12:48:42;;;;;;;16.85;7.05;;;21.80;99.90;;;;;;5004697;28;20030;-80
2022/05/16 12:51:25;;;;;;;10.38;6.35;;;21.60;99.90;;;;;;4997549;28;20046;-78
2022/05/16 12:54:28;;;;;;;16.50;6.13;;;21.60;99.90;;;;;;5003355;28;20382;-79
2022/05/16 12:56:56;;;;;;;10.45;7.05;;;21.70;99.90;;;;;;5005607;28;20478;-79
2022/05/16 12:59:34;;;;;;;10.65;6.30;;;21.80;99.90;;;;;;5012293;28;20038;-78
2022/05/16 13:02:19;;;;;;;12.07;7.53;;;21.80;99.90;;;;;;5010915;28;20068;-78
2022/05/16 13:05:19;;;;;;;12.65;6.75;;;21.90;99.90;;;;;;5009442;28;20104;-79
2022/05/16 13:08:21;;;;;;;12.43;7.72;;;22.00;99.90;;;;;;5030571;28;20470;-79
2022/05/16 13:11:25;;;;;;;20.67;8.05;;;22.20;99.90;;;;;;5026319;28;20042;-79
2022/05/16 13:14:16;;;;;;;18.15;9.88;;;22.30;99.90;;;;;;5012066;28;20132;-80
2022/05/16 13:17:02;;;;;;;16.45;8.73;;;22.30;99.90;;;;;;4994876;28;20034;-80
2022/05/16 13:19:33;;;;;;;19.52;9.73;;;22.40;99.90;;;;;;4998757;28;20037;-80
2022/05/16 13:22:09;;;;;;;18.33;8.02;;;22.60;99.90;;;;;;5034019;28;20034;-81
2022/05/16 13:24:34;;;;;;;11.32;7.25;;;22.60;99.90;;;;;;5032477;28;20033;-79
2022/05/16 13:29:47;;;;;;;10.32;6.25;;;22.60;99.90;;;;;;5031427;28;20095;-79
2022/05/16 13:32:17;;;;;;;17.13;6.40;;;22.80;99.90;;;;;;5033643;28;20033;-79
2022/05/16 13:34:45;;;;;;;10.80;5.38;;;22.80;99.90;;;;;;5034567;28;20143;-79